Current Weather

San Francisco Intl

San Francisco, California (KSFO)

Report from: Wednesday, May 29, 2024 1:56 AM PDT
Current time: Wednesday, May 29, 2024 2:13 AM PDT

Nearby weather – Weather history – Daily summaries
Weather forecast

Temperature12.8°C (55.0°F)
Dew point8.3°C (46.9°F)
Winds 10 kts (5.1 m/s, 11.5 mph) West (280°)
Wind gusts 22 kts (11.3 m/s, 25.3 mph)
Peak wind 26 kts (13.4 m/s, 29.9 mph) West-Northwest (300°) at 01:01
Visibility10 mi. (16.1 km)
Clouds Few clouds 20,000 ft. (6,096 m)
Altimeter30.08 in.Hg (1019 mB)
Relative humidity74 %
Density altitude-282 ft. (-86 m)
Sea-level pressure101.9 kPa (1019 mB, 30.08 in.Hg)
Remarks Automated weather observing station with precipitation discriminator
Pressure rising
Flight conditions Visual Meteorological Conditions
Raw dataKSFO 290856Z 28010G22KT 10SM FEW200 13/08 A3008 RMK AO2 PK WND 30026/0801 SLP185 T01280083 52004
An error has occurred. This application may no longer respond until reloaded. Reload 🗙